This is the latest recevied weather packets stored in our database for station/object IT9RID. If no packets are shown the sender has not sent any weather packets the latest 10 day(s).
| Time | Temp. | Humidity | Pressure | Rain* | Wind** | Luminosity | Snow |
|---|---|---|---|---|---|---|---|
| 1788074897 | 35.56° C | 29% | 1012.8 hPa | 0 mm | - | - | - |
| 1788074297 | 33.89° C | 32% | 1012.8 hPa | 0 mm | - | - | - |
| 1788073697 | 33.33° C | 32% | 1012.8 hPa | 0 mm | - | - | - |
| 1788073097 | 32.78° C | 34% | 1012.8 hPa | 0 mm | - | - | - |
| 1788072497 | 31.67° C | 37% | 1012.9 hPa | 0 mm | - | - | - |
| 1788071897 | 30.56° C | 38% | 1013.1 hPa | 0 mm | - | - | - |
| 1788071297 | 30° C | 39% | 1013.2 hPa | 0 mm | - | - | - |
| 1788070696 | 30° C | 41% | 1013.4 hPa | 0 mm | - | - | - |
| 1788070096 | 29.44° C | 38% | 1013.5 hPa | 0 mm | - | - | - |
| 1788069496 | 28.89° C | 38% | 1013.4 hPa | 0 mm | - | - | - |
| 1788068896 | 27.78° C | 39% | 1013.4 hPa | 0 mm | - | - | - |
| 1788068296 | 27.78° C | 40% | 1013.4 hPa | 0 mm | - | - | - |
| 1788067696 | 27.78° C | 39% | 1013.4 hPa | 0 mm | - | - | - |
| 1788067096 | 27.78° C | 38% | 1013.4 hPa | 0 mm | - | - | - |
| 1788066495 | 27.78° C | 38% | 1013.4 hPa | 0 mm | - | - | - |
| 1788065895 | 27.22° C | 38% | 1013.4 hPa | 0 mm | - | - | - |
| 1788065295 | 27.78° C | 37% | 1013.4 hPa | 0 mm | - | - | - |
| 1788064695 | 27.22° C | 37% | 1013.3 hPa | 0 mm | - | - | - |
| 1788064095 | 27.22° C | 38% | 1013.4 hPa | 0 mm | - | - | - |
| 1788063495 | 27.22° C | 39% | 1013.5 hPa | 0 mm | - | - | - |
| 1788062894 | 27.78° C | 38% | 1013.6 hPa | 0 mm | - | - | - |
| 1788062294 | 27.22° C | 39% | 1013.6 hPa | 0 mm | - | - | - |
| 1788061694 | 27.22° C | 39% | 1013.7 hPa | 0 mm | - | - | - |
| 1788061094 | 27.78° C | 38% | 1013.7 hPa | 0 mm | - | - | - |
| 1788060494 | 27.22° C | 39% | 1013.7 hPa | 0 mm | - | - | - |
* Rain latest hour (hover to see other rain measurements)
** Current wind speed in m/s (hover to see current wind gust speed)